sensor_id;sensor_type;location;lat;lon;timestamp;temperature;humidity
19920;DHT22;10122;50.074;19.920;2023-03-01T00:00:39;0.10;99.90
19920;DHT22;10122;50.074;19.920;2023-03-01T00:03:05;0.10;99.90
19920;DHT22;10122;50.074;19.920;2023-03-01T00:05:30;0.10;99.90
19920;DHT22;10122;50.074;19.920;2023-03-01T00:07:57;0.20;99.90
19920;DHT22;10122;50.074;19.920;2023-03-01T00:10:23;0.20;99.90
19920;DHT22;10122;50.074;19.920;2023-03-01T00:12:48;0.20;99.90
19920;DHT22;10122;50.074;19.920;2023-03-01T00:15:14;0.10;99.90
19920;DHT22;10122;50.074;19.920;2023-03-01T00:17:40;0.10;99.90
19920;DHT22;10122;50.074;19.920;2023-03-01T00:20:06;0.10;99.90
19920;DHT22;10122;50.074;19.920;2023-03-01T00:22:36;0.10;99.90
19920;DHT22;10122;50.074;19.920;2023-03-01T00:25:02;0.10;99.90
19920;DHT22;10122;50.074;19.920;2023-03-01T00:27:28;0.10;99.90
19920;DHT22;10122;50.074;19.920;2023-03-01T00:29:54;0.00;99.90
19920;DHT22;10122;50.074;19.920;2023-03-01T00:32:20;0.00;99.90
19920;DHT22;10122;50.074;19.920;2023-03-01T00:34:46;0.00;99.90
19920;DHT22;10122;50.074;19.920;2023-03-01T00:37:20;0.00;99.90
19920;DHT22;10122;50.074;19.920;2023-03-01T00:39:46;-0.10;99.90
19920;DHT22;10122;50.074;19.920;2023-03-01T00:42:12;-0.10;99.90
19920;DHT22;10122;50.074;19.920;2023-03-01T00:44:38;-0.10;99.90
19920;DHT22;10122;50.074;19.920;2023-03-01T00:47:03;-0.20;99.90
19920;DHT22;10122;50.074;19.920;2023-03-01T00:49:29;-0.20;99.90
19920;DHT22;10122;50.074;19.920;2023-03-01T00:51:55;-0.20;99.90
19920;DHT22;10122;50.074;19.920;2023-03-01T00:54:20;-0.20;99.90
19920;DHT22;10122;50.074;19.920;2023-03-01T00:56:46;-0.10;99.90
19920;DHT22;10122;50.074;19.920;2023-03-01T00:59:12;-0.20;99.90
19920;DHT22;10122;50.074;19.920;2023-03-01T01:01:37;-0.10;99.90
19920;DHT22;10122;50.074;19.920;2023-03-01T01:04:06;-0.20;99.90
19920;DHT22;10122;50.074;19.920;2023-03-01T01:06:38;-0.30;99.90
19920;DHT22;10122;50.074;19.920;2023-03-01T01:09:06;-0.30;99.90
19920;DHT22;10122;50.074;19.920;2023-03-01T01:11:32;-0.30;99.90
19920;DHT22;10122;50.074;19.920;2023-03-01T01:13:58;-0.20;99.90
19920;DHT22;10122;50.074;19.920;2023-03-01T01:16:26;-0.30;99.90
19920;DHT22;10122;50.074;19.920;2023-03-01T01:18:52;-0.40;99.90
19920;DHT22;10122;50.074;19.920;2023-03-01T01:21:20;-0.40;99.90
19920;DHT22;10122;50.074;19.920;2023-03-01T01:23:47;-0.40;99.90
19920;DHT22;10122;50.074;19.920;2023-03-01T01:26:17;-0.40;99.90
19920;DHT22;10122;50.074;19.920;2023-03-01T01:28:44;-0.40;99.90
19920;DHT22;10122;50.074;19.920;2023-03-01T01:31:10;-0.30;99.90
19920;DHT22;10122;50.074;19.920;2023-03-01T01:33:35;-0.30;99.90
19920;DHT22;10122;50.074;19.920;2023-03-01T01:36:03;-0.30;99.90
19920;DHT22;10122;50.074;19.920;2023-03-01T01:38:29;-0.30;99.90
19920;DHT22;10122;50.074;19.920;2023-03-01T01:40:55;-0.40;99.90
19920;DHT22;10122;50.074;19.920;2023-03-01T01:43:27;-0.40;99.90
19920;DHT22;10122;50.074;19.920;2023-03-01T01:45:56;-0.40;99.90
19920;DHT22;10122;50.074;19.920;2023-03-01T01:48:32;-0.40;99.90
19920;DHT22;10122;50.074;19.920;2023-03-01T01:51:11;-0.40;99.90
19920;DHT22;10122;50.074;19.920;2023-03-01T01:53:39;-0.40;99.90
19920;DHT22;10122;50.074;19.920;2023-03-01T01:56:07;-0.40;99.90
19920;DHT22;10122;50.074;19.920;2023-03-01T01:58:33;-0.40;99.90
19920;DHT22;10122;50.074;19.920;2023-03-01T02:00:59;-0.40;99.90
19920;DHT22;10122;50.074;19.920;2023-03-01T02:03:31;-0.50;99.90
19920;DHT22;10122;50.074;19.920;2023-03-01T02:06:37;-0.60;99.90
19920;DHT22;10122;50.074;19.920;2023-03-01T02:09:13;-0.60;99.90
19920;DHT22;10122;50.074;19.920;2023-03-01T02:11:40;-0.70;99.90
19920;DHT22;10122;50.074;19.920;2023-03-01T02:14:06;-0.70;99.90
19920;DHT22;10122;50.074;19.920;2023-03-01T02:16:32;-0.60;99.90
19920;DHT22;10122;50.074;19.920;2023-03-01T02:18:58;-0.60;99.90
19920;DHT22;10122;50.074;19.920;2023-03-01T02:21:37;-0.60;99.90
19920;DHT22;10122;50.074;19.920;2023-03-01T02:26:50;-0.60;99.90
19920;DHT22;10122;50.074;19.920;2023-03-01T02:29:16;-0.70;99.90
19920;DHT22;10122;50.074;19.920;2023-03-01T02:31:42;-0.70;99.90
19920;DHT22;10122;50.074;19.920;2023-03-01T02:34:14;-0.80;99.90
19920;DHT22;10122;50.074;19.920;2023-03-01T02:36:52;-0.80;99.90
19920;DHT22;10122;50.074;19.920;2023-03-01T02:39:24;-0.80;99.90
19920;DHT22;10122;50.074;19.920;2023-03-01T02:41:53;-0.80;99.90
19920;DHT22;10122;50.074;19.920;2023-03-01T02:44:21;-0.80;99.90
19920;DHT22;10122;50.074;19.920;2023-03-01T02:46:51;-0.80;99.90
19920;DHT22;10122;50.074;19.920;2023-03-01T02:49:27;-0.80;99.90
19920;DHT22;10122;50.074;19.920;2023-03-01T02:55:01;-0.80;99.90
19920;DHT22;10122;50.074;19.920;2023-03-01T02:57:29;-0.90;99.90
19920;DHT22;10122;50.074;19.920;2023-03-01T02:59:58;-0.80;99.90
19920;DHT22;10122;50.074;19.920;2023-03-01T03:02:30;-0.90;99.90
19920;DHT22;10122;50.074;19.920;2023-03-01T03:07:28;-0.90;99.90
19920;DHT22;10122;50.074;19.920;2023-03-01T03:09:54;-1.00;99.90
19920;DHT22;10122;50.074;19.920;2023-03-01T03:12:20;-1.00;99.90
19920;DHT22;10122;50.074;19.920;2023-03-01T03:14:45;-1.00;99.90
19920;DHT22;10122;50.074;19.920;2023-03-01T03:17:11;-0.90;99.90
19920;DHT22;10122;50.074;19.920;2023-03-01T03:19:37;-1.00;99.90
19920;DHT22;10122;50.074;19.920;2023-03-01T03:22:02;-1.10;99.90
19920;DHT22;10122;50.074;19.920;2023-03-01T03:24:28;-1.00;99.90
19920;DHT22;10122;50.074;19.920;2023-03-01T03:27:03;-1.10;99.90
19920;DHT22;10122;50.074;19.920;2023-03-01T03:29:29;-1.10;99.90
19920;DHT22;10122;50.074;19.920;2023-03-01T03:31:54;-1.10;99.90
19920;DHT22;10122;50.074;19.920;2023-03-01T03:34:20;-1.00;99.90
19920;DHT22;10122;50.074;19.920;2023-03-01T03:36:46;-1.00;99.90
19920;DHT22;10122;50.074;19.920;2023-03-01T03:39:12;-1.10;99.90
19920;DHT22;10122;50.074;19.920;2023-03-01T03:41:37;-1.10;99.90
19920;DHT22;10122;50.074;19.920;2023-03-01T03:44:03;-1.00;99.90
19920;DHT22;10122;50.074;19.920;2023-03-01T03:46:29;-1.10;99.90
19920;DHT22;10122;50.074;19.920;2023-03-01T03:48:55;-1.10;99.90
19920;DHT22;10122;50.074;19.920;2023-03-01T03:51:21;-1.10;99.90
19920;DHT22;10122;50.074;19.920;2023-03-01T03:53:48;-1.10;99.90
19920;DHT22;10122;50.074;19.920;2023-03-01T03:56:14;-1.10;99.90
19920;DHT22;10122;50.074;19.920;2023-03-01T03:58:40;-1.20;99.90
19920;DHT22;10122;50.074;19.920;2023-03-01T04:01:05;-1.20;99.90
19920;DHT22;10122;50.074;19.920;2023-03-01T04:03:32;-1.20;99.90
19920;DHT22;10122;50.074;19.920;2023-03-01T04:06:01;-1.20;99.90
19920;DHT22;10122;50.074;19.920;2023-03-01T04:08:27;-1.20;99.90
19920;DHT22;10122;50.074;19.920;2023-03-01T04:11:01;-1.20;99.90
19920;DHT22;10122;50.074;19.920;2023-03-01T04:13:47;-1.10;99.90
19920;DHT22;10122;50.074;19.920;2023-03-01T04:16:12;-1.10;99.90
19920;DHT22;10122;50.074;19.920;2023-03-01T04:18:38;-1.10;99.90
19920;DHT22;10122;50.074;19.920;2023-03-01T04:21:04;-1.20;99.90
19920;DHT22;10122;50.074;19.920;2023-03-01T04:23:30;-1.20;99.90
19920;DHT22;10122;50.074;19.920;2023-03-01T04:25:58;-1.20;99.90
19920;DHT22;10122;50.074;19.920;2023-03-01T04:28:39;-1.20;99.90
19920;DHT22;10122;50.074;19.920;2023-03-01T04:31:12;-1.20;99.90
19920;DHT22;10122;50.074;19.920;2023-03-01T04:33:51;-1.30;99.90
19920;DHT22;10122;50.074;19.920;2023-03-01T04:36:18;-1.30;99.90
19920;DHT22;10122;50.074;19.920;2023-03-01T04:38:44;-1.20;99.90
19920;DHT22;10122;50.074;19.920;2023-03-01T04:41:13;-1.30;99.90
19920;DHT22;10122;50.074;19.920;2023-03-01T04:43:40;-1.30;99.90
19920;DHT22;10122;50.074;19.920;2023-03-01T04:46:08;-1.30;99.90
19920;DHT22;10122;50.074;19.920;2023-03-01T04:48:36;-1.30;99.90
19920;DHT22;10122;50.074;19.920;2023-03-01T04:51:02;-1.30;99.90
19920;DHT22;10122;50.074;19.920;2023-03-01T04:53:29;-1.30;99.90
19920;DHT22;10122;50.074;19.920;2023-03-01T04:55:56;-1.40;99.90
19920;DHT22;10122;50.074;19.920;2023-03-01T04:58:27;-1.40;99.90
19920;DHT22;10122;50.074;19.920;2023-03-01T05:00:53;-1.40;99.90
19920;DHT22;10122;50.074;19.920;2023-03-01T05:03:19;-1.40;99.90
19920;DHT22;10122;50.074;19.920;2023-03-01T05:05:49;-1.40;99.90
19920;DHT22;10122;50.074;19.920;2023-03-01T05:08:15;-1.40;99.90
19920;DHT22;10122;50.074;19.920;2023-03-01T05:10:51;-1.40;99.90
19920;DHT22;10122;50.074;19.920;2023-03-01T05:13:19;-1.40;99.90
19920;DHT22;10122;50.074;19.920;2023-03-01T05:15:59;-1.40;99.90
19920;DHT22;10122;50.074;19.920;2023-03-01T05:18:26;-1.40;99.90
19920;DHT22;10122;50.074;19.920;2023-03-01T05:20:53;-1.30;99.90
19920;DHT22;10122;50.074;19.920;2023-03-01T05:23:22;-1.30;99.90
19920;DHT22;10122;50.074;19.920;2023-03-01T05:25:47;-1.40;99.90
19920;DHT22;10122;50.074;19.920;2023-03-01T05:28:14;-1.40;99.90
19920;DHT22;10122;50.074;19.920;2023-03-01T05:30:40;-1.50;99.90
19920;DHT22;10122;50.074;19.920;2023-03-01T05:33:07;-1.40;99.90
19920;DHT22;10122;50.074;19.920;2023-03-01T05:35:43;-1.40;99.90
19920;DHT22;10122;50.074;19.920;2023-03-01T05:38:11;-1.40;99.90
19920;DHT22;10122;50.074;19.920;2023-03-01T05:40:44;-1.40;99.90
19920;DHT22;10122;50.074;19.920;2023-03-01T05:43:10;-1.40;99.90
19920;DHT22;10122;50.074;19.920;2023-03-01T05:45:37;-1.30;99.90
19920;DHT22;10122;50.074;19.920;2023-03-01T05:48:04;-1.20;99.90
19920;DHT22;10122;50.074;19.920;2023-03-01T05:50:34;-1.10;99.90
19920;DHT22;10122;50.074;19.920;2023-03-01T05:53:15;-0.90;99.90
19920;DHT22;10122;50.074;19.920;2023-03-01T05:55:41;-0.70;99.90
19920;DHT22;10122;50.074;19.920;2023-03-01T05:58:12;-0.50;99.90
19920;DHT22;10122;50.074;19.920;2023-03-01T06:00:40;-0.20;99.90
19920;DHT22;10122;50.074;19.920;2023-03-01T06:03:06;0.10;99.90
19920;DHT22;10122;50.074;19.920;2023-03-01T06:05:32;0.30;99.90
19920;DHT22;10122;50.074;19.920;2023-03-01T06:08:01;0.60;99.90
19920;DHT22;10122;50.074;19.920;2023-03-01T06:10:27;0.80;99.90
19920;DHT22;10122;50.074;19.920;2023-03-01T06:12:53;1.10;99.90
19920;DHT22;10122;50.074;19.920;2023-03-01T06:15:19;1.40;99.90
19920;DHT22;10122;50.074;19.920;2023-03-01T06:17:46;1.70;99.90
19920;DHT22;10122;50.074;19.920;2023-03-01T06:20:19;2.00;99.90
19920;DHT22;10122;50.074;19.920;2023-03-01T06:22:47;2.40;99.90
19920;DHT22;10122;50.074;19.920;2023-03-01T06:25:15;2.70;99.90
19920;DHT22;10122;50.074;19.920;2023-03-01T06:27:42;3.10;99.90
19920;DHT22;10122;50.074;19.920;2023-03-01T06:30:09;3.70;99.90
19920;DHT22;10122;50.074;19.920;2023-03-01T06:32:36;4.30;99.90
19920;DHT22;10122;50.074;19.920;2023-03-01T06:35:03;4.50;99.90
19920;DHT22;10122;50.074;19.920;2023-03-01T06:37:29;4.70;99.90
19920;DHT22;10122;50.074;19.920;2023-03-01T06:39:55;5.00;99.90
19920;DHT22;10122;50.074;19.920;2023-03-01T06:42:20;5.20;99.90
19920;DHT22;10122;50.074;19.920;2023-03-01T06:44:46;5.20;99.90
19920;DHT22;10122;50.074;19.920;2023-03-01T06:47:12;5.00;99.90
19920;DHT22;10122;50.074;19.920;2023-03-01T06:49:38;4.80;99.90
19920;DHT22;10122;50.074;19.920;2023-03-01T06:52:04;4.50;99.90
19920;DHT22;10122;50.074;19.920;2023-03-01T06:54:29;4.30;99.90
19920;DHT22;10122;50.074;19.920;2023-03-01T06:56:55;4.10;99.90
19920;DHT22;10122;50.074;19.920;2023-03-01T06:59:21;4.00;99.90
19920;DHT22;10122;50.074;19.920;2023-03-01T07:01:46;3.80;99.90
19920;DHT22;10122;50.074;19.920;2023-03-01T07:04:13;3.60;99.90
19920;DHT22;10122;50.074;19.920;2023-03-01T07:06:39;3.50;99.90
19920;DHT22;10122;50.074;19.920;2023-03-01T07:09:05;3.50;99.90
19920;DHT22;10122;50.074;19.920;2023-03-01T07:11:30;3.40;99.90
19920;DHT22;10122;50.074;19.920;2023-03-01T07:13:56;3.40;99.90
19920;DHT22;10122;50.074;19.920;2023-03-01T07:16:23;3.40;99.90
19920;DHT22;10122;50.074;19.920;2023-03-01T07:18:49;3.50;99.90
19920;DHT22;10122;50.074;19.920;2023-03-01T07:21:15;4.00;99.90
19920;DHT22;10122;50.074;19.920;2023-03-01T07:23:42;4.60;99.90
19920;DHT22;10122;50.074;19.920;2023-03-01T07:26:07;5.30;99.90
19920;DHT22;10122;50.074;19.920;2023-03-01T07:28:33;5.90;99.90
19920;DHT22;10122;50.074;19.920;2023-03-01T07:31:07;6.40;99.90
19920;DHT22;10122;50.074;19.920;2023-03-01T07:33:33;6.80;99.90
19920;DHT22;10122;50.074;19.920;2023-03-01T07:36:00;7.30;99.90
19920;DHT22;10122;50.074;19.920;2023-03-01T07:38:27;7.80;99.90
19920;DHT22;10122;50.074;19.920;2023-03-01T07:41:00;8.20;99.90
19920;DHT22;10122;50.074;19.920;2023-03-01T07:43:27;8.60;99.90
19920;DHT22;10122;50.074;19.920;2023-03-01T07:45:53;8.90;99.90
19920;DHT22;10122;50.074;19.920;2023-03-01T07:48:19;9.10;99.90
19920;DHT22;10122;50.074;19.920;2023-03-01T07:50:44;9.40;99.90
19920;DHT22;10122;50.074;19.920;2023-03-01T07:53:10;9.60;99.90
19920;DHT22;10122;50.074;19.920;2023-03-01T07:55:36;9.90;99.90
19920;DHT22;10122;50.074;19.920;2023-03-01T07:58:02;10.00;99.90
19920;DHT22;10122;50.074;19.920;2023-03-01T08:00:28;10.00;99.90
19920;DHT22;10122;50.074;19.920;2023-03-01T08:02:54;10.30;99.90
19920;DHT22;10122;50.074;19.920;2023-03-01T08:05:20;10.60;99.90
19920;DHT22;10122;50.074;19.920;2023-03-01T08:07:47;10.80;99.90
19920;DHT22;10122;50.074;19.920;2023-03-01T08:10:13;11.20;99.90
19920;DHT22;10122;50.074;19.920;2023-03-01T08:12:39;11.50;99.90
19920;DHT22;10122;50.074;19.920;2023-03-01T08:15:05;11.80;99.90
19920;DHT22;10122;50.074;19.920;2023-03-01T08:17:31;11.80;99.90
19920;DHT22;10122;50.074;19.920;2023-03-01T08:19:56;11.90;99.90
19920;DHT22;10122;50.074;19.920;2023-03-01T08:22:22;12.10;99.90
19920;DHT22;10122;50.074;19.920;2023-03-01T08:24:48;12.30;99.90
19920;DHT22;10122;50.074;19.920;2023-03-01T08:27:15;12.40;98.20
19920;DHT22;10122;50.074;19.920;2023-03-01T08:29:41;12.50;97.50
19920;DHT22;10122;50.074;19.920;2023-03-01T08:32:13;12.80;99.10
19920;DHT22;10122;50.074;19.920;2023-03-01T08:34:39;13.30;98.00
19920;DHT22;10122;50.074;19.920;2023-03-01T08:37:05;13.40;96.80
19920;DHT22;10122;50.074;19.920;2023-03-01T08:39:31;13.60;95.70
19920;DHT22;10122;50.074;19.920;2023-03-01T08:41:57;13.90;96.20
19920;DHT22;10122;50.074;19.920;2023-03-01T08:44:23;14.20;94.40
19920;DHT22;10122;50.074;19.920;2023-03-01T08:46:48;14.20;93.30
19920;DHT22;10122;50.074;19.920;2023-03-01T08:49:19;14.20;93.30
19920;DHT22;10122;50.074;19.920;2023-03-01T08:51:46;14.20;91.30
19920;DHT22;10122;50.074;19.920;2023-03-01T08:54:21;14.20;92.00
19920;DHT22;10122;50.074;19.920;2023-03-01T08:56:48;14.30;91.60
19920;DHT22;10122;50.074;19.920;2023-03-01T08:59:15;14.20;90.50
19920;DHT22;10122;50.074;19.920;2023-03-01T09:01:41;14.20;90.50
19920;DHT22;10122;50.074;19.920;2023-03-01T09:04:11;14.50;91.10
19920;DHT22;10122;50.074;19.920;2023-03-01T09:06:37;14.60;87.00
19920;DHT22;10122;50.074;19.920;2023-03-01T09:09:04;14.20;82.20
19920;DHT22;10122;50.074;19.920;2023-03-01T09:11:30;14.00;88.60
19920;DHT22;10122;50.074;19.920;2023-03-01T09:13:56;14.30;89.80
19920;DHT22;10122;50.074;19.920;2023-03-01T09:16:23;14.80;88.90
19920;DHT22;10122;50.074;19.920;2023-03-01T09:18:53;15.10;87.30
19920;DHT22;10122;50.074;19.920;2023-03-01T09:21:20;15.10;83.00
19920;DHT22;10122;50.074;19.920;2023-03-01T09:23:47;14.90;82.70
19920;DHT22;10122;50.074;19.920;2023-03-01T09:26:16;14.90;84.40
19920;DHT22;10122;50.074;19.920;2023-03-01T09:28:45;15.10;85.00
19920;DHT22;10122;50.074;19.920;2023-03-01T09:31:11;15.30;83.60
19920;DHT22;10122;50.074;19.920;2023-03-01T09:33:41;15.40;81.20
19920;DHT22;10122;50.074;19.920;2023-03-01T09:36:13;15.40;79.80
19920;DHT22;10122;50.074;19.920;2023-03-01T09:38:39;15.30;80.30
19920;DHT22;10122;50.074;19.920;2023-03-01T09:46:55;14.80;80.50
19920;DHT22;10122;50.074;19.920;2023-03-01T09:49:33;14.90;77.60
19920;DHT22;10122;50.074;19.920;2023-03-01T09:52:03;14.40;69.30
19920;DHT22;10122;50.074;19.920;2023-03-01T09:54:30;14.00;78.20
19920;DHT22;10122;50.074;19.920;2023-03-01T09:57:18;14.10;78.40
19920;DHT22;10122;50.074;19.920;2023-03-01T09:59:56;14.40;78.40
19920;DHT22;10122;50.074;19.920;2023-03-01T10:02:29;14.50;78.10
19920;DHT22;10122;50.074;19.920;2023-03-01T10:05:09;14.60;77.80
19920;DHT22;10122;50.074;19.920;2023-03-01T10:10:35;14.80;74.00
19920;DHT22;10122;50.074;19.920;2023-03-01T10:15:55;13.80;71.90
19920;DHT22;10122;50.074;19.920;2023-03-01T10:18:29;13.70;74.00
19920;DHT22;10122;50.074;19.920;2023-03-01T10:23:24;13.80;70.20
19920;DHT22;10122;50.074;19.920;2023-03-01T10:31:27;13.90;76.10
19920;DHT22;10122;50.074;19.920;2023-03-01T10:34:06;14.00;73.50
19920;DHT22;10122;50.074;19.920;2023-03-01T10:36:33;14.00;74.20
19920;DHT22;10122;50.074;19.920;2023-03-01T10:39:05;14.10;73.90
19920;DHT22;10122;50.074;19.920;2023-03-01T10:41:49;14.10;69.90
19920;DHT22;10122;50.074;19.920;2023-03-01T10:44:44;13.90;71.10
19920;DHT22;10122;50.074;19.920;2023-03-01T10:47:17;13.60;70.30
19920;DHT22;10122;50.074;19.920;2023-03-01T10:49:57;13.40;68.70
19920;DHT22;10122;50.074;19.920;2023-03-01T10:52:26;13.20;73.20
19920;DHT22;10122;50.074;19.920;2023-03-01T10:55:22;13.10;68.30
19920;DHT22;10122;50.074;19.920;2023-03-01T10:57:49;11.80;68.90
19920;DHT22;10122;50.074;19.920;2023-03-01T11:00:24;11.00;71.60
19920;DHT22;10122;50.074;19.920;2023-03-01T11:05:26;10.20;72.80
19920;DHT22;10122;50.074;19.920;2023-03-01T11:07:58;10.10;76.80
19920;DHT22;10122;50.074;19.920;2023-03-01T11:10:35;10.40;79.30
19920;DHT22;10122;50.074;19.920;2023-03-01T11:13:15;10.80;76.40
19920;DHT22;10122;50.074;19.920;2023-03-01T11:15:41;10.60;71.70
19920;DHT22;10122;50.074;19.920;2023-03-01T11:18:21;10.40;77.10
19920;DHT22;10122;50.074;19.920;2023-03-01T11:20:49;10.60;78.70
19920;DHT22;10122;50.074;19.920;2023-03-01T11:23:17;11.00;79.30
19920;DHT22;10122;50.074;19.920;2023-03-01T11:26:01;11.20;78.50
19920;DHT22;10122;50.074;19.920;2023-03-01T11:28:29;11.50;77.20
19920;DHT22;10122;50.074;19.920;2023-03-01T11:31:10;11.50;76.50
19920;DHT22;10122;50.074;19.920;2023-03-01T11:33:54;11.50;73.70
19920;DHT22;10122;50.074;19.920;2023-03-01T11:38:50;11.00;74.70
19920;DHT22;10122;50.074;19.920;2023-03-01T11:41:34;10.70;72.60
19920;DHT22;10122;50.074;19.920;2023-03-01T11:44:05;10.40;75.20
19920;DHT22;10122;50.074;19.920;2023-03-01T11:57:45;10.20;75.20
19920;DHT22;10122;50.074;19.920;2023-03-01T12:17:57;8.90;80.20
19920;DHT22;10122;50.074;19.920;2023-03-01T12:40:52;9.60;71.80
19920;DHT22;10122;50.074;19.920;2023-03-01T12:43:51;8.90;74.40
19920;DHT22;10122;50.074;19.920;2023-03-01T12:46:28;8.80;72.20
19920;DHT22;10122;50.074;19.920;2023-03-01T12:49:16;8.80;78.70
19920;DHT22;10122;50.074;19.920;2023-03-01T12:52:11;9.00;70.30
19920;DHT22;10122;50.074;19.920;2023-03-01T12:54:36;8.80;73.50
19920;DHT22;10122;50.074;19.920;2023-03-01T12:57:25;9.00;76.00
19920;DHT22;10122;50.074;19.920;2023-03-01T13:03:18;9.60;69.70
19920;DHT22;10122;50.074;19.920;2023-03-01T13:05:54;9.40;68.10
19920;DHT22;10122;50.074;19.920;2023-03-01T13:11:21;9.70;68.50
19920;DHT22;10122;50.074;19.920;2023-03-01T13:13:48;9.70;65.10
19920;DHT22;10122;50.074;19.920;2023-03-01T13:21:41;8.50;66.80
19920;DHT22;10122;50.074;19.920;2023-03-01T13:29:53;8.70;71.30
19920;DHT22;10122;50.074;19.920;2023-03-01T13:32:35;9.00;72.50
19920;DHT22;10122;50.074;19.920;2023-03-01T13:42:55;9.30;74.20
19920;DHT22;10122;50.074;19.920;2023-03-01T13:48:09;9.30;76.00
19920;DHT22;10122;50.074;19.920;2023-03-01T13:50:46;9.30;72.70
19920;DHT22;10122;50.074;19.920;2023-03-01T13:53:22;9.00;73.70
19920;DHT22;10122;50.074;19.920;2023-03-01T13:55:51;8.70;74.10
19920;DHT22;10122;50.074;19.920;2023-03-01T13:58:29;8.50;75.10
19920;DHT22;10122;50.074;19.920;2023-03-01T14:01:07;8.70;76.40
19920;DHT22;10122;50.074;19.920;2023-03-01T14:03:40;8.90;75.90
19920;DHT22;10122;50.074;19.920;2023-03-01T14:08:35;8.90;74.90
19920;DHT22;10122;50.074;19.920;2023-03-01T14:19:36;9.50;73.80
19920;DHT22;10122;50.074;19.920;2023-03-01T14:22:13;9.60;73.30
19920;DHT22;10122;50.074;19.920;2023-03-01T14:24:47;9.60;72.60
19920;DHT22;10122;50.074;19.920;2023-03-01T14:27:15;9.30;73.00
19920;DHT22;10122;50.074;19.920;2023-03-01T14:29:42;9.20;72.10
19920;DHT22;10122;50.074;19.920;2023-03-01T14:32:19;9.30;73.70
19920;DHT22;10122;50.074;19.920;2023-03-01T14:34:48;9.60;73.40
19920;DHT22;10122;50.074;19.920;2023-03-01T14:37:34;9.30;70.50
19920;DHT22;10122;50.074;19.920;2023-03-01T14:40:02;8.90;70.60
19920;DHT22;10122;50.074;19.920;2023-03-01T14:42:34;8.70;71.80
19920;DHT22;10122;50.074;19.920;2023-03-01T14:45:02;8.90;71.20
19920;DHT22;10122;50.074;19.920;2023-03-01T14:47:34;8.90;70.70
19920;DHT22;10122;50.074;19.920;2023-03-01T14:52:40;8.90;71.50
19920;DHT22;10122;50.074;19.920;2023-03-01T14:55:16;8.80;71.30
19920;DHT22;10122;50.074;19.920;2023-03-01T14:57:44;8.70;73.30
19920;DHT22;10122;50.074;19.920;2023-03-01T15:00:21;8.90;75.00
19920;DHT22;10122;50.074;19.920;2023-03-01T15:02:50;9.20;72.70
19920;DHT22;10122;50.074;19.920;2023-03-01T15:05:26;9.10;72.30
19920;DHT22;10122;50.074;19.920;2023-03-01T15:07:53;9.10;73.20
19920;DHT22;10122;50.074;19.920;2023-03-01T15:10:22;8.90;72.80
19920;DHT22;10122;50.074;19.920;2023-03-01T15:12:49;8.80;73.60
19920;DHT22;10122;50.074;19.920;2023-03-01T15:15:34;8.70;74.60
19920;DHT22;10122;50.074;19.920;2023-03-01T15:18:06;8.50;74.30
19920;DHT22;10122;50.074;19.920;2023-03-01T15:20:38;8.60;73.30
19920;DHT22;10122;50.074;19.920;2023-03-01T15:23:04;8.40;74.00
19920;DHT22;10122;50.074;19.920;2023-03-01T15:25:31;8.40;71.90
19920;DHT22;10122;50.074;19.920;2023-03-01T15:27:59;8.10;71.80
19920;DHT22;10122;50.074;19.920;2023-03-01T15:35:51;7.90;74.30
19920;DHT22;10122;50.074;19.920;2023-03-01T15:40:52;7.90;75.50
19920;DHT22;10122;50.074;19.920;2023-03-01T15:43:43;8.00;75.80
19920;DHT22;10122;50.074;19.920;2023-03-01T15:46:32;8.00;75.10
19920;DHT22;10122;50.074;19.920;2023-03-01T15:49:02;7.80;73.60
19920;DHT22;10122;50.074;19.920;2023-03-01T15:51:37;7.60;74.00
19920;DHT22;10122;50.074;19.920;2023-03-01T15:54:20;7.50;74.10
19920;DHT22;10122;50.074;19.920;2023-03-01T15:56:46;7.40;74.00
19920;DHT22;10122;50.074;19.920;2023-03-01T15:59:13;7.40;75.50
19920;DHT22;10122;50.074;19.920;2023-03-01T16:01:40;7.30;75.60
19920;DHT22;10122;50.074;19.920;2023-03-01T16:04:06;7.30;77.60
19920;DHT22;10122;50.074;19.920;2023-03-01T16:06:32;7.50;76.80
19920;DHT22;10122;50.074;19.920;2023-03-01T16:08:57;7.60;77.20
19920;DHT22;10122;50.074;19.920;2023-03-01T16:11:23;7.80;77.50
19920;DHT22;10122;50.074;19.920;2023-03-01T16:13:49;7.80;76.10
19920;DHT22;10122;50.074;19.920;2023-03-01T16:16:16;7.60;78.10
19920;DHT22;10122;50.074;19.920;2023-03-01T16:18:46;7.40;76.80
19920;DHT22;10122;50.074;19.920;2023-03-01T16:21:38;7.10;78.30
19920;DHT22;10122;50.074;19.920;2023-03-01T16:24:04;7.10;79.10
19920;DHT22;10122;50.074;19.920;2023-03-01T16:26:30;7.00;79.10
19920;DHT22;10122;50.074;19.920;2023-03-01T16:28:56;6.90;80.00
19920;DHT22;10122;50.074;19.920;2023-03-01T16:31:23;6.90;78.50
19920;DHT22;10122;50.074;19.920;2023-03-01T16:33:54;6.80;80.20
19920;DHT22;10122;50.074;19.920;2023-03-01T16:36:21;6.70;80.00
19920;DHT22;10122;50.074;19.920;2023-03-01T16:38:49;6.70;80.90
19920;DHT22;10122;50.074;19.920;2023-03-01T16:41:17;6.70;82.40
19920;DHT22;10122;50.074;19.920;2023-03-01T16:43:44;6.80;80.40
19920;DHT22;10122;50.074;19.920;2023-03-01T16:46:17;6.80;82.70
19920;DHT22;10122;50.074;19.920;2023-03-01T16:48:43;6.70;82.20
19920;DHT22;10122;50.074;19.920;2023-03-01T16:51:09;6.70;82.50
19920;DHT22;10122;50.074;19.920;2023-03-01T16:53:36;6.70;83.60
19920;DHT22;10122;50.074;19.920;2023-03-01T16:56:05;6.70;83.10
19920;DHT22;10122;50.074;19.920;2023-03-01T16:58:31;6.60;83.50
19920;DHT22;10122;50.074;19.920;2023-03-01T17:01:10;6.50;81.40
19920;DHT22;10122;50.074;19.920;2023-03-01T17:03:37;6.40;81.50
19920;DHT22;10122;50.074;19.920;2023-03-01T17:06:06;6.20;82.10
19920;DHT22;10122;50.074;19.920;2023-03-01T17:08:32;6.10;82.80
19920;DHT22;10122;50.074;19.920;2023-03-01T17:11:12;6.00;84.00
19920;DHT22;10122;50.074;19.920;2023-03-01T17:13:39;6.00;84.30
19920;DHT22;10122;50.074;19.920;2023-03-01T17:16:07;6.00;85.00
19920;DHT22;10122;50.074;19.920;2023-03-01T17:18:33;6.00;83.80
19920;DHT22;10122;50.074;19.920;2023-03-01T17:20:59;5.90;84.20
19920;DHT22;10122;50.074;19.920;2023-03-01T17:23:26;5.80;84.20
19920;DHT22;10122;50.074;19.920;2023-03-01T17:25:52;5.70;85.00
19920;DHT22;10122;50.074;19.920;2023-03-01T17:28:21;5.70;85.30
19920;DHT22;10122;50.074;19.920;2023-03-01T17:30:48;5.70;85.70
19920;DHT22;10122;50.074;19.920;2023-03-01T17:33:14;5.60;85.80
19920;DHT22;10122;50.074;19.920;2023-03-01T17:35:40;5.60;86.20
19920;DHT22;10122;50.074;19.920;2023-03-01T17:38:06;5.60;86.10
19920;DHT22;10122;50.074;19.920;2023-03-01T17:40:32;5.60;86.40
19920;DHT22;10122;50.074;19.920;2023-03-01T17:43:00;5.50;87.00
19920;DHT22;10122;50.074;19.920;2023-03-01T17:45:27;5.50;88.10
19920;DHT22;10122;50.074;19.920;2023-03-01T17:47:53;5.60;88.50